Time;durP1;ratioP1;P1;durP2;ratioP2;P2;SDS_P1;SDS_P2;PMS_P1;PMS_P2;Temp;Humidity;BMP_temperature;BMP_pressure;BME280_temperature;BME280_humidity;BME280_pressure;Samples;Min_cycle;Max_cycle;Signal;HPM_P1;HPM_P2
2020/01/18 00:02:05;;;;;;;23.4;20.9;;;;;;;8.27;80.66406;966.1859;;;;
2020/01/18 00:04:30;;;;;;;23.9;21.1;;;;;;;8.26;80.9541;966.2233;;;;
2020/01/18 00:06:55;;;;;;;24.9;22.3;;;;;;;8.21;81.36523;966.2109;;;;
2020/01/18 00:09:20;;;;;;;24.7;21.8;;;;;;;8.23;81.0752;966.2751;;;;
2020/01/18 00:11:45;;;;;;;26.7;23.8;;;;;;;8.19;81.29004;966.2756;;;;
2020/01/18 00:14:10;;;;;;;26.2;23.4;;;;;;;8.14;81.47656;966.3535;;;;
2020/01/18 00:16:35;;;;;;;25.5;22.8;;;;;;;8.17;81.49512;966.3225;;;;
2020/01/18 00:19:01;;;;;;;27.6;24.7;;;;;;;8.18;81.46191;966.3887;;;;
2020/01/18 00:21:26;;;;;;;27.8;23.3;;;;;;;8.25;81.1377;966.3962;;;;
2020/01/18 00:23:51;;;;;;;29.4;26.2;;;;;;;8.14;81.40723;966.3752;;;;
2020/01/18 00:26:17;;;;;;;27.8;24.8;;;;;;;8.14;81.31348;966.3308;;;;
2020/01/18 00:28:42;;;;;;;27.1;24.3;;;;;;;8.22;81.01563;966.329;;;;
2020/01/18 00:31:07;;;;;;;27.7;24.8;;;;;;;8.15;81.50195;966.3109;;;;
2020/01/18 00:33:32;;;;;;;29.1;25.6;;;;;;;8.15;81.11914;966.3538;;;;
2020/01/18 00:35:57;;;;;;;29.5;25.4;;;;;;;8.19;81.11523;966.3209;;;;
2020/01/18 00:38:22;;;;;;;29.6;26.4;;;;;;;8.22;81.20215;966.343;;;;
2020/01/18 00:40:47;;;;;;;29.1;26;;;;;;;8.03;81.74805;966.3483;;;;
2020/01/18 00:43:12;;;;;;;28.3;25.3;;;;;;;8.01;81.88477;966.4019;;;;
2020/01/18 00:45:38;;;;;;;28.4;25.4;;;;;;;8.04;81.91504;966.394;;;;
2020/01/18 00:48:03;;;;;;;27.5;24.7;;;;;;;8.1;81.43555;966.3911;;;;
2020/01/18 00:50:28;;;;;;;28.1;25.1;;;;;;;8.03;81.70117;966.3524;;;;
2020/01/18 00:52:53;;;;;;;26.9;24.1;;;;;;;7.88;82.03613;966.3387;;;;
2020/01/18 00:55:19;;;;;;;28;25;;;;;;;7.96;82.00293;966.4451;;;;
2020/01/18 00:58:35;;;;;;;27.6;24.7;;;;;;;7.94;82.03418;966.5027;;;;
2020/01/18 01:00:24;;;;;;;25.6;22.9;;;;;;;8.01;81.81348;966.4817;;;;
2020/01/18 01:02:53;;;;;;;26.1;23.4;;;;;;;7.98;81.91309;966.5535;;;;
2020/01/18 01:05:08;;;;;;;28.1;25.1;;;;;;;7.98;81.94922;966.5613;;;;
2020/01/18 01:07:24;;;;;;;26.3;23.5;;;;;;;7.96;81.81641;966.6103;;;;
2020/01/18 01:09:49;;;;;;;25.6;22.8;;;;;;;7.93;81.69531;966.6658;;;;
2020/01/18 01:12:14;;;;;;;24.9;22;;;;;;;7.83;82.11719;966.7634;;;;
2020/01/18 01:14:39;;;;;;;25.6;22.8;;;;;;;7.82;82.19922;966.7636;;;;
2020/01/18 01:17:04;;;;;;;24.5;21.9;;;;;;;7.81;82.21875;966.8115;;;;
2020/01/18 01:19:29;;;;;;;23;20.6;;;;;;;7.85;82.03906;966.8047;;;;
2020/01/18 01:21:54;;;;;;;24.4;21.8;;;;;;;7.87;82.02051;966.8795;;;;
2020/01/18 01:25:49;;;;;;;23;20.6;;;;;;;7.91;81.83105;966.9352;;;;
2020/01/18 01:29:00;;;;;;;24.8;22.1;;;;;;;7.98;81.30664;966.9754;;;;
2020/01/18 01:32:30;;;;;;;22.6;20.2;;;;;;;7.81;82.02051;967.0639;;;;
2020/01/18 01:35:41;;;;;;;24.2;21.2;;;;;;;7.72;82.09766;967.1685;;;;
2020/01/18 01:38:51;;;;;;;23.9;21;;;;;;;7.85;81.50488;967.0572;;;;
2020/01/18 01:42:02;;;;;;;21.8;19.4;;;;;;;7.8;81.79785;967.0452;;;;
2020/01/18 01:45:12;;;;;;;23.1;20.5;;;;;;;7.73;82.05371;967.0773;;;;
2020/01/18 01:48:23;;;;;;;23.2;19.3;;;;;;;7.76;81.6377;967.111;;;;
2020/01/18 01:51:33;;;;;;;22;18.8;;;;;;;7.79;81.67969;967.1613;;;;
2020/01/18 01:54:44;;;;;;;22.1;19.1;;;;;;;7.75;81.77832;967.1614;;;;
2020/01/18 01:57:54;;;;;;;20;17.5;;;;;;;7.7;81.82422;967.1552;;;;
2020/01/18 02:01:06;;;;;;;21.6;18.3;;;;;;;7.63;81.94043;967.159;;;;
2020/01/18 02:04:16;;;;;;;22.7;18;;;;;;;7.65;81.82715;967.1931;;;;
2020/01/18 02:07:27;;;;;;;22.3;18.3;;;;;;;7.68;81.625;967.1866;;;;
2020/01/18 02:10:37;;;;;;;20.1;17.6;;;;;;;7.61;81.91406;967.2403;;;;
2020/01/18 02:13:48;;;;;;;22.5;17.6;;;;;;;7.67;81.92383;967.2852;;;;
2020/01/18 02:16:58;;;;;;;21.3;18.2;;;;;;;7.67;81.55176;967.2836;;;;
2020/01/18 02:20:09;;;;;;;20.6;18;;;;;;;7.65;81.70996;967.2717;;;;
2020/01/18 02:23:19;;;;;;;21.6;17.3;;;;;;;7.63;81.58008;967.2537;;;;
2020/01/18 02:26:30;;;;;;;20.4;17.2;;;;;;;7.64;81.63965;967.3036;;;;
2020/01/18 02:29:40;;;;;;;22.2;18.2;;;;;;;7.61;81.82129;967.3398;;;;
2020/01/18 02:32:14;;;;;;;22.5;18.1;;;;;;;7.68;81.55469;967.4142;;;;
2020/01/18 02:34:39;;;;;;;20;17.3;;;;;;;7.67;81.5166;967.5005;;;;
2020/01/18 02:37:04;;;;;;;22;16.3;;;;;;;7.71;81.37402;967.5043;;;;
2020/01/18 02:39:29;;;;;;;21.6;17.6;;;;;;;7.74;81.43848;967.5187;;;;
2020/01/18 02:41:54;;;;;;;24;17.8;;;;;;;7.64;81.6748;967.6428;;;;
2020/01/18 02:44:34;;;;;;;22.8;17.9;;;;;;;7.65;81.78125;967.6822;;;;
2020/01/18 02:47:44;;;;;;;22.4;18.1;;;;;;;7.67;81.5752;967.7255;;;;
2020/01/18 02:50:54;;;;;;;20.5;17.1;;;;;;;7.54;82.08496;967.7133;;;;
2020/01/18 02:54:05;;;;;;;22.6;18.9;;;;;;;7.52;81.75781;967.8142;;;;
2020/01/18 02:57:15;;;;;;;19.2;15.9;;;;;;;7.62;81.03125;967.8438;;;;
2020/01/18 03:00:26;;;;;;;20.5;17.2;;;;;;;7.6;81.56348;967.8567;;;;
2020/01/18 03:02:51;;;;;;;24.8;18.6;;;;;;;7.51;81.94043;967.9137;;;;
2020/01/18 03:05:16;;;;;;;21;17.1;;;;;;;7.63;81.48828;967.9985;;;;
2020/01/18 03:07:41;;;;;;;21.8;17.2;;;;;;;7.63;81.40723;967.9775;;;;
2020/01/18 03:10:06;;;;;;;23.9;17.9;;;;;;;7.56;81.6709;967.9624;;;;
2020/01/18 03:12:31;;;;;;;23.6;18;;;;;;;7.58;81.29199;967.9777;;;;
2020/01/18 03:19:56;;;;;;;22;18.2;;;;;;;7.52;81.7207;968.0823;;;;
2020/01/18 03:23:12;;;;;;;24.7;18.5;;;;;;;7.49;81.73926;968.0717;;;;
2020/01/18 03:25:27;;;;;;;20.9;18;;;;;;;7.46;81.80273;968.1541;;;;
2020/01/18 03:27:52;;;;;;;22.2;18;;;;;;;7.59;81.1875;968.1875;;;;
2020/01/18 03:30:18;;;;;;;24.4;19.8;;;;;;;7.57;81.42676;968.2001;;;;
2020/01/18 03:32:43;;;;;;;22.8;18;;;;;;;7.59;81.15234;968.1896;;;;
2020/01/18 03:35:08;;;;;;;22.5;18.6;;;;;;;7.5;81.58984;968.183;;;;
2020/01/18 03:37:33;;;;;;;22.2;18.1;;;;;;;7.54;81.44531;968.2136;;;;
2020/01/18 03:39:58;;;;;;;24.7;18.7;;;;;;;7.55;81.33203;968.2294;;;;
2020/01/18 03:42:23;;;;;;;21.6;16.9;;;;;;;7.47;81.28223;968.1987;;;;
2020/01/18 03:44:48;;;;;;;22.8;17.6;;;;;;;7.51;81.33691;968.2541;;;;
2020/01/18 03:47:13;;;;;;;20.1;16.4;;;;;;;7.48;81.10938;968.3219;;;;
2020/01/18 03:49:38;;;;;;;21.5;16.7;;;;;;;7.45;81.25586;968.3314;;;;
2020/01/18 03:52:03;;;;;;;24.8;17.1;;;;;;;7.38;81.56836;968.3274;;;;
2020/01/18 03:54:28;;;;;;;21.8;16.2;;;;;;;7.42;81.29492;968.4091;;;;
2020/01/18 03:56:54;;;;;;;21.2;16.7;;;;;;;7.41;81.22266;968.4363;;;;
2020/01/18 03:59:19;;;;;;;21.9;15.8;;;;;;;7.47;80.67676;968.4272;;;;
2020/01/18 04:02:26;;;;;;;24.1;16.6;;;;;;;7.53;80.30273;968.4025;;;;
2020/01/18 04:04:51;;;;;;;22.1;15.7;;;;;;;7.38;80.92676;968.4514;;;;
2020/01/18 04:07:16;;;;;;;21.4;14.8;;;;;;;7.34;80.98926;968.436;;;;
2020/01/18 04:09:42;;;;;;;22.2;15.8;;;;;;;7.27;81.30176;968.5097;;;;
2020/01/18 04:12:07;;;;;;;19.9;14.9;;;;;;;7.3;81.13379;968.5397;;;;
2020/01/18 04:14:32;;;;;;;19.3;15.4;;;;;;;7.33;81.12598;968.5858;;;;
2020/01/18 04:16:58;;;;;;;20.8;15.1;;;;;;;7.41;80.375;968.5793;;;;
2020/01/18 04:19:22;;;;;;;20.8;15;;;;;;;7.33;80.84863;968.5901;;;;
2020/01/18 04:21:47;;;;;;;19.4;14.8;;;;;;;7.31;80.76172;968.5895;;;;
2020/01/18 04:24:12;;;;;;;21.6;14.9;;;;;;;7.29;80.81641;968.5737;;;;
2020/01/18 04:26:37;;;;;;;19.6;14.5;;;;;;;7.18;81.10938;968.6453;;;;
2020/01/18 04:29:02;;;;;;;18.6;14.2;;;;;;;7.13;80.99609;968.6808;;;;
2020/01/18 04:31:27;;;;;;;19.8;14.3;;;;;;;7.12;81.11133;968.698;;;;
2020/01/18 04:33:52;;;;;;;20.1;14.6;;;;;;;7.12;81.00586;968.7136;;;;
2020/01/18 04:36:18;;;;;;;19.4;14.9;;;;;;;7.05;81.3418;968.7836;;;;
2020/01/18 04:38:47;;;;;;;20.2;14.4;;;;;;;7.02;81.19727;968.8533;;;;
2020/01/18 04:41:07;;;;;;;17.8;13.7;;;;;;;7.05;80.97949;968.8494;;;;
2020/01/18 04:43:32;;;;;;;19.8;14.2;;;;;;;7;80.98438;968.8892;;;;
2020/01/18 04:45:57;;;;;;;21;13.8;;;;;;;7.01;80.95117;968.8717;;;;
2020/01/18 04:48:22;;;;;;;18.8;13.5;;;;;;;6.92;81.24707;968.87;;;;
2020/01/18 04:50:47;;;;;;;21.7;13.7;;;;;;;6.93;81.14551;968.8444;;;;
2020/01/18 04:53:12;;;;;;;21;14.3;;;;;;;6.9;81.06934;968.8077;;;;
2020/01/18 04:55:38;;;;;;;17;12.7;;;;;;;6.97;80.875;968.8459;;;;
2020/01/18 04:58:03;;;;;;;20.3;14;;;;;;;6.91;81.05957;968.8686;;;;
2020/01/18 05:00:28;;;;;;;18.9;13;;;;;;;6.96;80.8252;968.8859;;;;
2020/01/18 05:02:53;;;;;;;18.9;13.5;;;;;;;6.99;80.56445;968.9161;;;;
2020/01/18 05:05:18;;;;;;;18.5;13.2;;;;;;;7.14;79.92969;968.8766;;;;
2020/01/18 05:07:43;;;;;;;18.9;13.3;;;;;;;7.13;79.98438;968.96;;;;
2020/01/18 05:10:08;;;;;;;20.2;13.8;;;;;;;7.08;80.02148;968.9329;;;;
2020/01/18 05:12:33;;;;;;;20.3;13.2;;;;;;;7.16;80.11719;968.9109;;;;
2020/01/18 05:14:58;;;;;;;20.2;13.6;;;;;;;7.15;79.93164;968.9264;;;;
2020/01/18 05:17:23;;;;;;;19.1;13.4;;;;;;;7.16;80.07129;968.9359;;;;
2020/01/18 05:19:49;;;;;;;23.2;13.7;;;;;;;7.12;80.15723;968.924;;;;
2020/01/18 05:25:27;;;;;;;20.9;14;;;;;;;7.12;79.87793;969.0396;;;;
2020/01/18 05:27:07;;;;;;;19.4;13.9;;;;;;;7.11;79.75879;969.0344;;;;
2020/01/18 05:29:29;;;;;;;21.1;14.8;;;;;;;7.09;79.98828;969.1006;;;;
2020/01/18 05:32:03;;;;;;;20.5;13.8;;;;;;;7.14;79.87207;969.1064;;;;
2020/01/18 05:34:19;;;;;;;22.5;14;;;;;;;7.19;79.41602;969.0655;;;;
2020/01/18 05:36:44;;;;;;;21.5;15.3;;;;;;;7.2;79.46289;969.1624;;;;
2020/01/18 05:39:09;;;;;;;20.5;13.9;;;;;;;7.17;79.81836;969.1597;;;;
2020/01/18 05:41:34;;;;;;;20.8;14.2;;;;;;;7.24;79.48242;969.2253;;;;
2020/01/18 05:43:59;;;;;;;21.7;14.3;;;;;;;7.16;79.79199;969.2029;;;;
2020/01/18 05:46:25;;;;;;;18.7;13.5;;;;;;;7.27;79.17383;969.2233;;;;
2020/01/18 05:48:50;;;;;;;18.7;13.3;;;;;;;7.23;79.45605;969.2841;;;;
2020/01/18 05:51:15;;;;;;;19.5;14.5;;;;;;;7.06;80.13477;969.353;;;;
2020/01/18 05:53:40;;;;;;;17.2;12.3;;;;;;;6.93;79.62109;969.4083;;;;
2020/01/18 05:56:05;;;;;;;14.4;9.4;;;;;;;6.93;78.86816;969.4574;;;;
2020/01/18 05:58:30;;;;;;;13.9;9.1;;;;;;;6.83;79.35938;969.4117;;;;
2020/01/18 06:00:55;;;;;;;13.2;8.9;;;;;;;6.87;79.15723;969.4014;;;;
2020/01/18 06:03:20;;;;;;;11.7;8.1;;;;;;;6.91;78.6416;969.3535;;;;
2020/01/18 06:05:46;;;;;;;12.1;8;;;;;;;6.99;78.54199;969.4402;;;;
2020/01/18 06:08:11;;;;;;;15.9;9;;;;;;;6.98;78.74805;969.4727;;;;
2020/01/18 06:10:36;;;;;;;10.9;7.6;;;;;;;7.01;77.8457;969.5278;;;;
2020/01/18 06:13:01;;;;;;;12.9;7.8;;;;;;;6.99;78.07715;969.5405;;;;
2020/01/18 06:15:26;;;;;;;12.6;7.5;;;;;;;7.05;78.28418;969.5426;;;;
2020/01/18 06:17:51;;;;;;;12.2;7.9;;;;;;;7.15;77.96484;969.5334;;;;
2020/01/18 06:20:16;;;;;;;9.4;7.1;;;;;;;7.04;77.12012;969.5339;;;;
2020/01/18 06:22:42;;;;;;;10.2;6.2;;;;;;;6.95;77.87109;969.6021;;;;
2020/01/18 06:25:07;;;;;;;10.6;6.8;;;;;;;6.97;77.61914;969.7188;;;;
2020/01/18 06:27:32;;;;;;;9.7;5.9;;;;;;;6.89;77.5127;969.7761;;;;
2020/01/18 06:29:57;;;;;;;9.8;5;;;;;;;6.85;77.24805;969.7455;;;;
2020/01/18 06:32:22;;;;;;;10.8;5.1;;;;;;;6.97;76.78223;969.7804;;;;
2020/01/18 06:34:47;;;;;;;9.5;5.4;;;;;;;6.93;77.01855;969.7851;;;;
2020/01/18 06:37:13;;;;;;;9.3;5.4;;;;;;;6.68;77.76367;969.7932;;;;
2020/01/18 06:39:38;;;;;;;9;4.3;;;;;;;6.79;76.56348;969.8134;;;;
2020/01/18 06:42:03;;;;;;;7.5;4.5;;;;;;;6.78;77.07227;969.8315;;;;
2020/01/18 06:44:28;;;;;;;7.1;3.8;;;;;;;6.6;76.50488;969.8412;;;;
2020/01/18 06:46:53;;;;;;;7.1;3.6;;;;;;;6.67;76.74023;969.8714;;;;
2020/01/18 06:49:18;;;;;;;8.8;3.6;;;;;;;6.59;76.59863;969.9474;;;;
2020/01/18 06:54:50;;;;;;;6.9;3.2;;;;;;;6.38;76.88574;969.9446;;;;
2020/01/18 06:56:34;;;;;;;6.2;2.9;;;;;;;6.34;77.93555;969.9199;;;;
2020/01/18 06:58:59;;;;;;;7.4;2.9;;;;;;;6.09;78.00293;969.9299;;;;
2020/01/18 07:01:24;;;;;;;6.9;3.3;;;;;;;5.93;79.13574;969.9604;;;;
2020/01/18 07:03:49;;;;;;;6.7;3.4;;;;;;;5.98;79.15723;969.9927;;;;
2020/01/18 07:06:14;;;;;;;7.4;3.2;;;;;;;6.01;78.60547;969.9641;;;;
2020/01/18 07:08:40;;;;;;;6.8;3;;;;;;;5.96;78.57227;969.9856;;;;
2020/01/18 07:11:05;;;;;;;6.3;2.8;;;;;;;5.98;78.83203;969.9628;;;;
2020/01/18 07:13:32;;;;;;;6.2;3.1;;;;;;;6.02;78.375;969.9897;;;;
2020/01/18 07:16:21;;;;;;;7.3;3.1;;;;;;;5.86;79.00488;969.9791;;;;
2020/01/18 07:19:05;;;;;;;8.1;3;;;;;;;5.79;79.2373;969.9589;;;;
2020/01/18 07:20:45;;;;;;;9;3.3;;;;;;;5.87;79.45898;969.942;;;;
2020/01/18 07:23:10;;;;;;;5.8;2.5;;;;;;;5.83;79.4541;969.9558;;;;
2020/01/18 07:25:35;;;;;;;7.7;2.6;;;;;;;5.7;78.93066;969.9731;;;;
2020/01/18 07:28:00;;;;;;;8.7;2.8;;;;;;;5.71;79.40723;969.9747;;;;
2020/01/18 07:30:26;;;;;;;8.6;2.9;;;;;;;5.84;79.37402;969.9741;;;;
2020/01/18 07:32:51;;;;;;;7.5;2.6;;;;;;;5.81;79.18262;969.96;;;;
2020/01/18 07:35:16;;;;;;;5.2;2.6;;;;;;;5.92;78.87695;970.0201;;;;
2020/01/18 07:37:41;;;;;;;6.2;2.8;;;;;;;5.82;79.05664;970.028;;;;
2020/01/18 07:40:06;;;;;;;7.4;2.9;;;;;;;5.83;79.38281;970.0795;;;;
2020/01/18 07:42:37;;;;;;;8.7;2.9;;;;;;;5.89;79.16211;970.0516;;;;
2020/01/18 07:44:56;;;;;;;5.4;2.9;;;;;;;5.92;79.16895;970.0297;;;;
2020/01/18 07:47:22;;;;;;;7.2;3.3;;;;;;;5.88;79.43848;970.0643;;;;
2020/01/18 07:49:47;;;;;;;7.2;2.9;;;;;;;5.95;79.28906;970.0602;;;;
2020/01/18 07:52:12;;;;;;;6.1;3.3;;;;;;;5.99;79.36523;970.0676;;;;
2020/01/18 07:54:37;;;;;;;8.3;3.5;;;;;;;6.13;78.37109;970.0851;;;;
2020/01/18 07:57:03;;;;;;;8.2;3.3;;;;;;;6.19;78.26563;970.0394;;;;
2020/01/18 07:59:27;;;;;;;6.6;3.2;;;;;;;6.32;77.81445;970.0385;;;;
2020/01/18 08:01:53;;;;;;;6.6;3.5;;;;;;;6.45;77.53516;970.0338;;;;
2020/01/18 08:04:18;;;;;;;6.7;3.4;;;;;;;6.6;76.60938;970.0531;;;;
2020/01/18 08:06:43;;;;;;;7.9;3.7;;;;;;;6.69;76.4082;970.0709;;;;
2020/01/18 08:09:08;;;;;;;8.2;3.7;;;;;;;6.84;75.89844;970.0804;;;;
2020/01/18 08:11:33;;;;;;;5.8;3.2;;;;;;;6.74;75.50781;970.1397;;;;
2020/01/18 08:13:59;;;;;;;7.3;3.5;;;;;;;7.14;74.81152;970.2033;;;;
2020/01/18 08:16:24;;;;;;;8.8;3.6;;;;;;;6.97;75.72559;970.1611;;;;
2020/01/18 08:18:49;;;;;;;7.6;3.5;;;;;;;6.85;76.45801;970.2112;;;;
2020/01/18 08:21:14;;;;;;;6.9;3.4;;;;;;;6.67;77.25098;970.2675;;;;
2020/01/18 08:23:39;;;;;;;5.8;3.2;;;;;;;6.41;78.3291;970.3745;;;;
2020/01/18 08:26:04;;;;;;;6.3;2.8;;;;;;;5.97;78.23633;970.5051;;;;
2020/01/18 08:28:30;;;;;;;4.6;2.7;;;;;;;5.73;78.88965;970.4536;;;;
2020/01/18 08:30:54;;;;;;;4.9;2.5;;;;;;;5.53;80.11523;970.5153;;;;
2020/01/18 08:33:19;;;;;;;4.9;2.4;;;;;;;5.47;79.07422;970.5083;;;;
2020/01/18 08:35:44;;;;;;;4.6;2.1;;;;;;;5.5;79.72559;970.5728;;;;
2020/01/18 08:38:12;;;;;;;4.9;1.8;;;;;;;5.46;77.92578;970.5489;;;;
2020/01/18 08:40:35;;;;;;;4.9;1.7;;;;;;;5.44;78.61621;970.4437;;;;
2020/01/18 08:43:00;;;;;;;5.5;1.7;;;;;;;5.45;77.9668;970.5583;;;;
2020/01/18 08:45:25;;;;;;;5;1.5;;;;;;;5.44;78.28027;970.4833;;;;
2020/01/18 08:47:50;;;;;;;5.8;1.5;;;;;;;5.5;78.03613;970.463;;;;
2020/01/18 08:50:15;;;;;;;7.6;2.2;;;;;;;5.59;77.57715;970.4412;;;;
2020/01/18 08:52:40;;;;;;;5.3;1.8;;;;;;;5.61;78.13672;970.4431;;;;
2020/01/18 08:55:05;;;;;;;6;1.7;;;;;;;5.69;77.6084;970.4532;;;;
2020/01/18 08:57:30;;;;;;;4.6;1.5;;;;;;;5.81;77.41992;970.4774;;;;
2020/01/18 08:59:56;;;;;;;6.1;1.9;;;;;;;5.78;77.84473;970.4959;;;;
2020/01/18 09:09:37;;;;;;;7.9;2.7;;;;;;;5.9;78.5957;970.4382;;;;
2020/01/18 09:12:02;;;;;;;5.9;2.3;;;;;;;5.83;79.33594;970.4451;;;;
2020/01/18 09:14:27;;;;;;;6.9;2.2;;;;;;;5.91;78.52734;970.4331;;;;
2020/01/18 09:16:52;;;;;;;6.8;2.3;;;;;;;5.92;78.21777;970.4779;;;;
2020/01/18 09:19:17;;;;;;;6.2;2.3;;;;;;;5.96;76.68164;970.4395;;;;
2020/01/18 09:21:42;;;;;;;7.7;2.2;;;;;;;5.96;77.93457;970.5122;;;;
2020/01/18 09:24:07;;;;;;;7.8;2.2;;;;;;;6.08;77.60742;970.6025;;;;
2020/01/18 09:26:32;;;;;;;5.6;2;;;;;;;6.09;77.75;970.5323;;;;
2020/01/18 09:28:57;;;;;;;6.7;1.9;;;;;;;6.12;77.23438;970.5699;;;;
2020/01/18 09:31:23;;;;;;;6.5;2.1;;;;;;;6.18;76.64063;970.6036;;;;
2020/01/18 09:33:48;;;;;;;6.7;1.9;;;;;;;6.21;76.83105;970.5767;;;;
2020/01/18 09:36:13;;;;;;;6.9;2;;;;;;;6.29;76.61426;970.6649;;;;
2020/01/18 09:38:38;;;;;;;7.4;2.1;;;;;;;6.24;77.01074;970.6342;;;;
2020/01/18 09:41:03;;;;;;;5.8;2.1;;;;;;;6.15;75.8584;970.6346;;;;
2020/01/18 09:43:28;;;;;;;5.9;1.9;;;;;;;6.23;76.61523;970.6747;;;;
2020/01/18 09:45:54;;;;;;;6;1.9;;;;;;;6.25;76.29297;970.6891;;;;
2020/01/18 09:48:19;;;;;;;6.5;1.8;;;;;;;6.34;76.28711;970.6567;;;;
2020/01/18 09:50:44;;;;;;;10.5;2;;;;;;;6.38;76.30469;970.7042;;;;
2020/01/18 09:53:09;;;;;;;8.1;1.9;;;;;;;6.32;76.83984;970.7019;;;;
2020/01/18 09:55:34;;;;;;;8.5;2;;;;;;;6.26;76.59766;970.687;;;;
2020/01/18 09:57:59;;;;;;;7.7;2;;;;;;;6.38;76.82617;970.7047;;;;
2020/01/18 10:00:25;;;;;;;10.6;2.1;;;;;;;6.33;77.45605;970.7572;;;;
2020/01/18 10:02:50;;;;;;;8.6;2.2;;;;;;;6.41;76.56348;970.7173;;;;
2020/01/18 10:05:15;;;;;;;7.1;2.2;;;;;;;6.32;76.72363;970.6979;;;;
2020/01/18 10:07:40;;;;;;;7.8;2.4;;;;;;;6.36;77.55371;970.7029;;;;
2020/01/18 10:10:05;;;;;;;7.6;2.6;;;;;;;6.37;77.13965;970.6646;;;;
2020/01/18 10:12:30;;;;;;;9.1;2.3;;;;;;;6.38;77.49902;970.6481;;;;
2020/01/18 10:14:55;;;;;;;9.1;2.5;;;;;;;6.41;77.00586;970.6719;;;;
2020/01/18 10:17:20;;;;;;;5.9;2.1;;;;;;;6.49;76.77637;970.6448;;;;
2020/01/18 10:19:45;;;;;;;10.1;3.2;;;;;;;6.31;77.3252;970.6147;;;;
2020/01/18 10:22:11;;;;;;;9.3;2.8;;;;;;;6.4;77.53906;970.6553;;;;
2020/01/18 10:24:47;;;;;;;6;2.1;;;;;;;6.41;77.56348;970.6451;;;;
2020/01/18 10:27:01;;;;;;;6.1;2.3;;;;;;;6.47;77.55273;970.6655;;;;
2020/01/18 10:29:26;;;;;;;8.2;2.6;;;;;;;6.53;77.55078;970.6578;;;;
2020/01/18 10:31:51;;;;;;;9;2.6;;;;;;;6.56;77.38184;970.6447;;;;
2020/01/18 10:34:17;;;;;;;9.6;2.9;;;;;;;6.53;77.33008;970.6353;;;;
2020/01/18 10:36:42;;;;;;;6.1;2.6;;;;;;;6.74;76.77441;970.59;;;;
2020/01/18 10:39:07;;;;;;;5.1;2.5;;;;;;;6.71;77.64063;970.6284;;;;
2020/01/18 10:41:32;;;;;;;7.1;3.1;;;;;;;6.64;77.62988;970.6803;;;;
2020/01/18 10:43:57;;;;;;;11;3.2;;;;;;;6.67;77.64453;970.6049;;;;
2020/01/18 10:46:22;;;;;;;7.8;2.9;;;;;;;6.64;77.44336;970.5857;;;;
2020/01/18 10:52:01;;;;;;;6.6;3.1;;;;;;;6.55;78.11133;970.5277;;;;
2020/01/18 10:53:41;;;;;;;5.6;3;;;;;;;6.56;78.05469;970.4919;;;;
2020/01/18 10:57:25;;;;;;;7.5;2.8;;;;;;;6.6;77.00488;970.5349;;;;
2020/01/18 10:58:31;;;;;;;7.2;3.1;;;;;;;6.49;77.04395;970.5042;;;;
2020/01/18 11:00:55;;;;;;;7;2.9;;;;;;;6.49;77.80957;970.488;;;;
2020/01/18 11:03:18;;;;;;;8.5;3;;;;;;;6.37;76.60547;970.4802;;;;
2020/01/18 11:05:43;;;;;;;7;2.7;;;;;;;6.39;76.13281;970.4398;;;;
2020/01/18 11:08:08;;;;;;;6.4;2.6;;;;;;;6.36;76.18457;970.2827;;;;
2020/01/18 11:10:33;;;;;;;6.5;2.6;;;;;;;6.43;75.85059;970.2386;;;;
2020/01/18 11:12:59;;;;;;;8.1;2.6;;;;;;;6.61;74.66211;970.2103;;;;
2020/01/18 11:15:24;;;;;;;8.1;2.4;;;;;;;6.57;75.73438;970.2206;;;;
2020/01/18 11:17:49;;;;;;;8.9;2.8;;;;;;;6.71;75.49219;970.2265;;;;
2020/01/18 11:20:14;;;;;;;7.2;2.4;;;;;;;6.85;73.85547;970.2525;;;;
2020/01/18 11:22:39;;;;;;;6.1;2.2;;;;;;;6.85;72.55176;970.2333;;;;
2020/01/18 11:25:04;;;;;;;4.7;1.9;;;;;;;6.85;71.87988;970.2227;;;;
2020/01/18 11:27:29;;;;;;;6.4;1.9;;;;;;;6.85;72.70508;970.2202;;;;
2020/01/18 11:29:54;;;;;;;6;2.1;;;;;;;6.85;71.69336;970.1838;;;;
2020/01/18 11:32:20;;;;;;;5.7;1.9;;;;;;;6.88;71.79297;970.1274;;;;
2020/01/18 11:34:45;;;;;;;6.9;2.3;;;;;;;6.84;71.37891;970.1155;;;;
2020/01/18 11:37:10;;;;;;;5.4;1.8;;;;;;;6.91;71.5166;970.1259;;;;
2020/01/18 11:39:35;;;;;;;5.2;2.2;;;;;;;7.03;71.21289;970.1216;;;;
2020/01/18 11:42:00;;;;;;;8;2.8;;;;;;;7.13;70.61328;970.1088;;;;
2020/01/18 11:44:25;;;;;;;6;2.4;;;;;;;7.16;71.50293;970.1365;;;;
2020/01/18 11:46:50;;;;;;;7.6;2.5;;;;;;;7.06;71.53125;970.0837;;;;
2020/01/18 11:49:16;;;;;;;6.5;2.6;;;;;;;7.23;70.9541;970.0374;;;;
2020/01/18 11:51:41;;;;;;;8.4;2.4;;;;;;;7.26;71.62207;970.0945;;;;
2020/01/18 11:54:06;;;;;;;7.1;2.3;;;;;;;7.22;71.38379;970.0273;;;;
2020/01/18 11:56:31;;;;;;;7.1;2.5;;;;;;;7.23;70.26953;970.0494;;;;
2020/01/18 11:58:56;;;;;;;6.2;2.3;;;;;;;7.29;70.67383;970.0552;;;;
2020/01/18 12:01:21;;;;;;;6.7;2.3;;;;;;;7.4;70.46973;970.051;;;;
2020/01/18 12:03:46;;;;;;;8.7;2.5;;;;;;;7.21;70.23047;970.0513;;;;
2020/01/18 12:06:12;;;;;;;7.9;2.4;;;;;;;7.29;69.00879;970.0264;;;;
2020/01/18 12:08:37;;;;;;;5.8;2;;;;;;;7.35;69.52051;970.0356;;;;
2020/01/18 12:11:02;;;;;;;5.3;2;;;;;;;7.39;69.14258;970.0302;;;;
2020/01/18 12:13:27;;;;;;;5.5;1.9;;;;;;;7.45;69.09375;970.0485;;;;
2020/01/18 12:15:52;;;;;;;5.1;1.8;;;;;;;7.34;69.37988;970.0417;;;;
2020/01/18 12:18:17;;;;;;;6.1;1.8;;;;;;;7.34;69.1582;970.0385;;;;
2020/01/18 12:20:43;;;;;;;5.4;1.9;;;;;;;7.4;69.43457;970.0339;;;;
2020/01/18 12:23:08;;;;;;;5.8;1.8;;;;;;;7.4;68.77148;970.038;;;;
2020/01/18 12:25:33;;;;;;;6.4;1.9;;;;;;;7.28;68.83496;969.9952;;;;
2020/01/18 12:27:58;;;;;;;8.5;2.1;;;;;;;7.33;69.44629;970.0313;;;;
2020/01/18 12:30:29;;;;;;;7.7;2.1;;;;;;;7.32;70.00391;970.0397;;;;
2020/01/18 12:32:48;;;;;;;4.6;2;;;;;;;7.12;69.79785;970.0508;;;;
2020/01/18 12:35:13;;;;;;;9.3;2.4;;;;;;;7.24;69.25977;969.9836;;;;
2020/01/18 12:37:38;;;;;;;4.5;2;;;;;;;7.13;69.42578;970.0045;;;;
2020/01/18 12:40:04;;;;;;;5.1;2;;;;;;;7.1;70.67871;969.9779;;;;
2020/01/18 12:44:57;;;;;;;5.5;2.4;;;;;;;7.12;69.37891;969.9069;;;;
2020/01/18 12:47:28;;;;;;;7.6;2.4;;;;;;;7.08;69.58301;969.905;;;;
2020/01/18 12:52:12;;;;;;;6.2;2.4;;;;;;;7.03;70.52734;969.895;;;;
2020/01/18 12:54:51;;;;;;;8.4;2.5;;;;;;;7.13;70.98535;969.8279;;;;
2020/01/18 12:57:15;;;;;;;4.2;2;;;;;;;7.19;70.57617;969.7794;;;;
2020/01/18 12:59:40;;;;;;;5.2;2.1;;;;;;;7.02;70.68848;969.7949;;;;
2020/01/18 13:02:05;;;;;;;5.6;2.3;;;;;;;7.11;71.36621;969.7413;;;;
2020/01/18 13:04:30;;;;;;;5.2;2.3;;;;;;;7.24;71.43457;969.7464;;;;
2020/01/18 13:06:55;;;;;;;7.2;2.2;;;;;;;7.33;70.48145;969.693;;;;
2020/01/18 13:09:21;;;;;;;7.4;2.3;;;;;;;7.22;70.62891;969.718;;;;
2020/01/18 13:11:46;;;;;;;7.7;2.3;;;;;;;7.34;70.50781;969.7124;;;;
2020/01/18 13:14:11;;;;;;;7.5;2.1;;;;;;;7.3;70.14063;969.6559;;;;
2020/01/18 13:16:36;;;;;;;6.4;2.1;;;;;;;7.2;70.11328;969.7111;;;;
2020/01/18 13:19:01;;;;;;;7.7;2.7;;;;;;;7.16;71.26855;969.7233;;;;
2020/01/18 13:21:26;;;;;;;5.1;2.1;;;;;;;7.29;70.84668;969.7156;;;;
2020/01/18 13:23:51;;;;;;;8;2.8;;;;;;;7.25;71.5752;969.6875;;;;
2020/01/18 13:26:16;;;;;;;6.2;2.1;;;;;;;7.22;70.80176;969.6722;;;;
2020/01/18 13:28:41;;;;;;;7.3;2.5;;;;;;;7.4;70.47168;969.6635;;;;
2020/01/18 13:31:06;;;;;;;6.7;2.2;;;;;;;7.45;70.51367;969.5919;;;;
2020/01/18 13:33:31;;;;;;;8.7;2.4;;;;;;;7.4;70.33203;969.6092;;;;
2020/01/18 13:35:57;;;;;;;6.2;2.1;;;;;;;7.44;69.60449;969.5753;;;;
2020/01/18 13:38:22;;;;;;;6.3;2.3;;;;;;;7.52;70.12988;969.5492;;;;
2020/01/18 13:40:47;;;;;;;5.4;2.3;;;;;;;7.56;70.50977;969.5037;;;;
2020/01/18 13:43:12;;;;;;;6.8;2.4;;;;;;;7.66;69.89648;969.4989;;;;
2020/01/18 13:45:37;;;;;;;8.2;2.5;;;;;;;7.52;69.03613;969.5566;;;;
2020/01/18 13:48:02;;;;;;;10.3;2.6;;;;;;;7.57;70.5459;969.4977;;;;
2020/01/18 13:50:27;;;;;;;8.2;2.3;;;;;;;7.7;69.4375;969.4201;;;;
2020/01/18 13:52:52;;;;;;;6.5;2.2;;;;;;;7.68;68.99316;969.4111;;;;
2020/01/18 13:55:18;;;;;;;7.2;2.5;;;;;;;7.64;69.19531;969.4169;;;;
2020/01/18 13:57:43;;;;;;;7.4;2.4;;;;;;;7.72;69.87207;969.4475;;;;
2020/01/18 14:00:08;;;;;;;7.2;2.5;;;;;;;7.68;70.49316;969.413;;;;
2020/01/18 14:02:33;;;;;;;5.8;2.4;;;;;;;7.7;69.8916;969.4384;;;;
2020/01/18 14:04:58;;;;;;;5.3;2.3;;;;;;;7.63;68.72852;969.4207;;;;
2020/01/18 14:07:23;;;;;;;9.1;2.6;;;;;;;7.48;69.90137;969.402;;;;
2020/01/18 14:09:48;;;;;;;7.8;2.9;;;;;;;7.48;67.60938;969.4069;;;;
2020/01/18 14:12:14;;;;;;;7.8;2.5;;;;;;;7.47;67.71387;969.3962;;;;
2020/01/18 14:14:39;;;;;;;8.4;2.3;;;;;;;7.4;68.24805;969.4542;;;;
2020/01/18 14:17:04;;;;;;;6;2.4;;;;;;;7.44;68.46582;969.4261;;;;
2020/01/18 14:19:29;;;;;;;8.5;2.8;;;;;;;7.47;68.58594;969.439;;;;
2020/01/18 14:21:54;;;;;;;8;2.6;;;;;;;7.56;68.48438;969.3426;;;;
2020/01/18 14:24:19;;;;;;;6.7;2.7;;;;;;;7.54;68.60938;969.3396;;;;
2020/01/18 14:26:44;;;;;;;6.2;2.5;;;;;;;7.57;68.58984;969.36;;;;
2020/01/18 14:29:09;;;;;;;5.6;2.4;;;;;;;7.87;68.54492;969.3533;;;;
2020/01/18 14:31:34;;;;;;;6.2;2.2;;;;;;;8.08;67.26172;969.3562;;;;
2020/01/18 14:33:59;;;;;;;5;2.4;;;;;;;8.28;66.79199;969.3467;;;;
2020/01/18 14:37:28;;;;;;;7;2.4;;;;;;;8.26;65.08594;969.3408;;;;
2020/01/18 14:44:55;;;;;;;7.1;2.6;;;;;;;8.26;63.69824;969.3472;;;;
2020/01/18 14:46:10;;;;;;;5.2;2.4;;;;;;;8.2;64.66992;969.3244;;;;
2020/01/18 14:48:30;;;;;;;6.7;2.9;;;;;;;7.98;64.76465;969.3823;;;;
2020/01/18 14:50:55;;;;;;;7.3;2.7;;;;;;;7.76;65.16309;969.3719;;;;
2020/01/18 14:53:20;;;;;;;6.4;2.5;;;;;;;7.69;65.4082;969.389;;;;
2020/01/18 14:55:45;;;;;;;6.7;2.9;;;;;;;7.66;66.125;969.3799;;;;
2020/01/18 14:58:10;;;;;;;7.2;2.7;;;;;;;7.65;66.29785;969.3234;;;;
2020/01/18 15:00:35;;;;;;;7;2.7;;;;;;;7.57;66.4834;969.3456;;;;
2020/01/18 15:03:01;;;;;;;8.8;2.7;;;;;;;7.5;67.21777;969.3777;;;;
2020/01/18 15:05:26;;;;;;;7.5;2.6;;;;;;;7.38;67.08203;969.4565;;;;
2020/01/18 15:07:51;;;;;;;8.5;3;;;;;;;7.42;66.97266;969.5162;;;;